createdAt,value
2018-02-06T00:01:10.585Z,17.90
2018-02-06T00:03:11.600Z,15.85
2018-02-06T00:05:12.929Z,15.75
2018-02-06T00:09:52.307Z,17.60
2018-02-06T00:11:53.535Z,13.85
2018-02-06T00:13:54.685Z,12.70
2018-02-06T00:15:56.427Z,19.55
2018-02-06T00:17:57.404Z,17.35
2018-02-06T00:19:58.359Z,16.43
2018-02-06T00:22:13.266Z,15.90
2018-02-06T00:26:45.869Z,18.62
2018-02-06T00:28:47.342Z,15.50
2018-02-06T00:30:48.334Z,21.50
2018-02-06T00:32:49.303Z,14.60
2018-02-06T00:37:26.692Z,15.30
2018-02-06T00:39:29.609Z,14.20
2018-02-06T00:41:31.646Z,15.43
2018-02-06T00:43:43.187Z,16.12
2018-02-06T00:45:45.443Z,16.45
2018-02-06T00:47:46.601Z,19.83
2018-02-06T00:55:16.530Z,18.65
2018-02-06T00:57:25.300Z,18.92
2018-02-06T02:21:13.966Z,24.30
2018-02-06T02:26:02.377Z,26.55
2018-02-06T02:28:03.568Z,24.92
2018-02-06T02:30:06.293Z,22.30
2018-02-06T02:34:43.729Z,20.15
2018-02-06T02:36:44.754Z,27.50
2018-02-06T02:38:45.774Z,20.42
2018-02-06T04:41:51.759Z,42.55
2018-02-06T04:49:21.176Z,104.47
2018-02-06T04:51:22.355Z,304.60
2018-02-06T04:53:23.372Z,141.15
2018-02-06T04:58:02.585Z,60.78
2018-02-06T05:00:03.632Z,51.80
2018-02-06T05:02:04.857Z,36.60
2018-02-06T05:04:05.915Z,39.05
2018-02-06T05:06:07.092Z,38.00
2018-02-06T05:08:08.226Z,38.10
2018-02-06T05:10:09.226Z,37.88
2018-02-06T05:12:10.289Z,32.60
2018-02-06T05:14:11.324Z,40.92
2018-02-06T05:16:12.417Z,30.80
2018-02-06T05:20:51.495Z,33.85
2018-02-06T05:22:52.449Z,37.88
2018-02-06T05:24:53.562Z,42.03
2018-02-06T05:31:45.557Z,31.00
2018-02-06T05:34:06.619Z,29.63
2018-02-06T05:38:49.389Z,37.05
2018-02-06T05:40:50.394Z,33.45
2018-02-06T05:42:51.393Z,31.60
2018-02-06T05:44:52.434Z,33.33
2018-02-06T05:46:53.569Z,35.28
2018-02-06T05:48:54.780Z,30.90
2018-02-06T05:51:09.628Z,36.10
2018-02-06T05:53:10.635Z,30.52
2018-02-06T05:55:11.832Z,31.07
2018-02-06T05:57:12.870Z,29.02
2018-02-06T05:59:13.880Z,30.42
2018-02-06T06:01:14.862Z,41.30
2018-02-06T06:03:15.920Z,35.23
2018-02-06T06:05:38.387Z,34.10
2018-02-06T06:07:39.548Z,36.40
2018-02-06T06:09:41.569Z,32.20
2018-02-06T06:11:42.588Z,28.75
2018-02-06T06:13:43.544Z,32.63
2018-02-06T06:15:44.524Z,32.93
2018-02-06T06:17:45.593Z,35.33
2018-02-06T06:19:46.626Z,32.67
2018-02-06T06:21:47.604Z,36.25
2018-02-06T06:23:48.615Z,31.63
2018-02-06T06:25:49.623Z,35.28
2018-02-06T06:27:50.575Z,43.83
2018-02-06T06:29:52.383Z,37.80
2018-02-06T06:32:14.373Z,46.03
2018-02-06T06:44:35.908Z,92.05
2018-02-06T06:56:57.173Z,55.22
2018-02-06T06:58:59.175Z,45.80
2018-02-06T07:08:54.501Z,152.60
2018-02-06T07:11:05.672Z,74.93
2018-02-06T07:18:36.762Z,38.03
2018-02-06T07:20:40.120Z,32.80
2018-02-06T07:22:41.067Z,31.00
2018-02-06T07:26:52.001Z,33.25
2018-02-06T07:28:53.048Z,27.20
2018-02-06T07:31:14.667Z,30.98
2018-02-06T07:33:16.270Z,24.60
2018-02-06T07:35:34.717Z,23.80
2018-02-06T07:37:36.881Z,26.55
2018-02-06T07:39:37.946Z,22.92
2018-02-06T07:44:11.783Z,21.20
2018-02-06T07:46:22.972Z,22.80
2018-02-06T07:48:24.145Z,25.63
2018-02-06T07:50:30.364Z,26.00
2018-02-06T07:52:31.546Z,21.87
2018-02-06T07:54:43.916Z,19.80
2018-02-06T07:56:44.905Z,19.52
2018-02-06T07:58:45.929Z,25.23
2018-02-06T08:00:47.040Z,29.60
2018-02-06T08:02:49.053Z,26.60
2018-02-06T08:04:50.834Z,22.92
2018-02-06T08:06:51.932Z,18.93
2018-02-06T08:08:52.912Z,23.70
2018-02-06T08:10:55.130Z,21.05
2018-02-06T08:13:00.495Z,20.80
2018-02-06T08:15:01.726Z,22.90
2018-02-06T08:17:15.503Z,22.95
2018-02-06T08:24:35.421Z,18.30
2018-02-06T08:26:36.433Z,20.00
2018-02-06T08:31:14.619Z,22.67
2018-02-06T08:33:15.606Z,20.43
2018-02-06T08:35:16.615Z,18.30
2018-02-06T08:37:35.411Z,17.40
2018-02-06T08:42:04.814Z,21.97
2018-02-06T08:44:05.947Z,23.50
2018-02-06T08:46:06.896Z,16.70
2018-02-06T08:48:07.867Z,19.37
2018-02-06T08:50:08.847Z,19.80
2018-02-06T08:52:09.848Z,23.33
2018-02-06T08:54:10.804Z,18.87
2018-02-06T08:56:11.801Z,17.57
2018-02-06T08:58:12.764Z,19.87
2018-02-06T09:00:13.765Z,20.70
2018-02-06T09:02:14.882Z,23.37
2018-02-06T09:04:34.613Z,25.80
2018-02-06T09:07:05.124Z,19.10
2018-02-06T09:09:06.835Z,21.70
2018-02-06T09:13:33.652Z,19.67
2018-02-06T09:15:34.658Z,22.67
2018-02-06T09:17:58.779Z,27.53
2018-02-06T09:19:59.832Z,21.93
2018-02-06T09:22:00.854Z,20.30
2018-02-06T09:24:01.808Z,19.57
2018-02-06T09:26:02.833Z,26.45
2018-02-06T09:30:32.474Z,16.00
2018-02-06T09:32:33.500Z,14.30
2018-02-06T09:34:34.607Z,16.83
2018-02-06T09:36:35.680Z,14.13
2018-02-06T09:41:14.531Z,15.70
2018-02-06T09:50:46.516Z,15.65
2018-02-06T09:52:47.605Z,18.45
2018-02-06T09:54:48.783Z,13.50
2018-02-06T09:57:15.358Z,20.30
2018-02-06T09:59:24.824Z,14.30
2018-02-06T10:01:25.800Z,14.50
2018-02-06T10:03:26.801Z,14.30
2018-02-06T10:05:27.739Z,18.30
2018-02-06T10:07:29.503Z,14.63
2018-02-06T10:09:44.553Z,18.30
2018-02-06T10:11:45.600Z,16.17
2018-02-06T10:18:42.852Z,14.83
2018-02-06T10:20:43.815Z,18.40
2018-02-06T10:22:44.788Z,15.10
2018-02-06T10:24:45.740Z,22.27
2018-02-06T10:26:46.791Z,17.30
2018-02-06T10:28:47.775Z,14.90
2018-02-06T10:30:48.764Z,15.97
2018-02-06T10:35:43.193Z,15.70
2018-02-06T10:37:44.150Z,17.08
2018-02-06T10:39:45.213Z,16.43
2018-02-06T10:41:46.179Z,16.33
2018-02-06T10:44:12.703Z,15.32
2018-02-06T10:46:13.754Z,17.63
2018-02-06T10:48:14.842Z,19.30
2018-02-06T10:55:10.807Z,16.23
2018-02-06T10:57:12.544Z,17.97
2018-02-06T10:59:13.764Z,18.20
2018-02-06T11:01:14.804Z,15.20
2018-02-06T11:03:15.752Z,16.12
2018-02-06T11:05:16.734Z,15.23
2018-02-06T11:07:17.693Z,14.20
2018-02-06T11:09:18.715Z,17.13
2018-02-06T11:11:19.695Z,18.60
2018-02-06T11:13:21.378Z,16.10
2018-02-06T11:15:42.611Z,15.00
2018-02-06T11:17:43.616Z,16.07
2018-02-06T11:19:44.598Z,15.07
2018-02-06T11:21:45.559Z,16.12
2018-02-06T11:24:12.308Z,19.50
2018-02-06T11:28:41.252Z,18.62
2018-02-06T11:33:10.248Z,19.40
2018-02-06T11:35:11.227Z,20.30
2018-02-06T11:37:13.179Z,13.63
2018-02-06T11:39:22.859Z,16.20
2018-02-06T11:41:24.611Z,17.15
2018-02-06T11:45:53.124Z,21.20
2018-02-06T11:47:54.127Z,20.27
2018-02-06T11:49:55.070Z,17.90
2018-02-06T11:51:56.044Z,15.67
2018-02-06T11:53:56.994Z,14.75
2018-02-06T11:58:33.311Z,14.50
2018-02-06T12:00:34.476Z,16.05
2018-02-06T12:02:35.584Z,14.40
2018-02-06T12:04:36.548Z,14.10
2018-02-06T12:06:37.667Z,16.65
2018-02-06T12:08:40.036Z,17.53
2018-02-06T12:10:41.052Z,16.57
2018-02-06T12:12:42.008Z,13.60
2018-02-06T12:14:42.988Z,14.80
2018-02-06T12:16:43.947Z,18.10
2018-02-06T12:18:45.099Z,13.25
2018-02-06T12:28:38.003Z,13.40
2018-02-06T12:30:39.050Z,13.80
2018-02-06T12:35:19.072Z,15.10
2018-02-06T12:37:20.052Z,14.20
2018-02-06T12:39:21.019Z,15.53
2018-02-06T12:41:24.876Z,14.40
2018-02-06T12:43:27.059Z,15.33
2018-02-06T12:47:38.431Z,13.60
2018-02-06T12:52:18.365Z,14.30
2018-02-06T12:54:23.094Z,11.73
2018-02-06T12:56:24.588Z,13.50
2018-02-06T12:58:25.600Z,15.10
2018-02-06T13:03:04.776Z,18.80
2018-02-06T13:05:06.121Z,11.97
2018-02-06T13:07:07.845Z,13.97
2018-02-06T13:09:09.372Z,14.27
2018-02-06T13:11:10.767Z,13.50
2018-02-06T13:13:12.306Z,15.63
2018-02-06T13:15:13.850Z,14.10
2018-02-06T13:17:14.895Z,14.07
2018-02-06T13:22:04.746Z,14.20
2018-02-06T13:26:34.426Z,17.70
2018-02-06T13:36:29.207Z,19.80
2018-02-06T13:38:30.283Z,14.37
2018-02-06T13:40:46.741Z,17.40
2018-02-06T13:45:15.496Z,16.30
2018-02-06T13:47:16.440Z,16.37
2018-02-06T13:51:57.043Z,15.23
2018-02-06T13:53:58.053Z,22.42
2018-02-06T13:55:59.109Z,16.00
2018-02-06T13:58:00.170Z,21.13
2018-02-06T14:00:01.852Z,16.60
2018-02-06T14:02:03.065Z,21.23
2018-02-06T14:04:04.923Z,15.27
2018-02-06T14:06:06.383Z,18.80
2018-02-06T14:08:08.251Z,19.97
2018-02-06T14:10:10.302Z,21.67
2018-02-06T14:12:20.433Z,26.87
2018-02-06T14:14:27.217Z,23.10
2018-02-06T14:16:28.314Z,20.47
2018-02-06T14:21:07.855Z,19.13
2018-02-06T14:23:15.500Z,23.17
2018-02-06T14:25:16.568Z,20.17
2018-02-06T14:27:20.635Z,25.60
2018-02-06T14:39:49.828Z,22.67
2018-02-06T14:41:51.600Z,25.10
2018-02-06T14:43:52.630Z,24.60
2018-02-06T14:45:53.674Z,26.27
2018-02-06T14:50:33.897Z,21.20
2018-02-06T14:53:00.667Z,26.90
2018-02-06T14:55:01.739Z,23.03
2018-02-06T14:59:39.579Z,23.87
2018-02-06T15:01:42.496Z,22.40
2018-02-06T15:11:39.425Z,20.90
2018-02-06T15:13:40.599Z,24.63
2018-02-06T15:15:42.469Z,24.17
2018-02-06T15:17:43.562Z,23.90
2018-02-06T15:22:24.078Z,23.00
2018-02-06T15:24:25.138Z,18.97
2018-02-06T15:26:51.680Z,22.70
2018-02-06T15:31:31.324Z,36.40
2018-02-06T15:33:37.977Z,31.60
2018-02-06T15:35:39.724Z,22.07
2018-02-06T15:37:41.375Z,23.60
2018-02-06T15:39:43.990Z,24.45
2018-02-06T15:41:48.941Z,25.73
2018-02-06T15:43:53.503Z,23.27
2018-02-06T15:48:08.039Z,34.90
2018-02-06T15:50:09.455Z,27.93
2018-02-06T15:52:11.640Z,25.50
2018-02-06T15:54:14.085Z,21.90
2018-02-06T15:56:15.723Z,22.90
2018-02-06T15:58:17.411Z,21.23
2018-02-06T16:00:20.920Z,26.97
2018-02-06T16:02:22.810Z,24.02
2018-02-06T16:04:24.926Z,23.70
2018-02-06T16:06:26.500Z,31.70
2018-02-06T16:08:27.751Z,21.75
2018-02-06T16:10:30.233Z,23.87
2018-02-06T16:12:31.820Z,19.53
2018-02-06T16:14:33.496Z,24.40
2018-02-06T16:16:35.148Z,21.40
2018-02-06T16:18:38.118Z,24.13
2018-02-06T16:20:40.212Z,30.30
2018-02-06T16:22:41.626Z,20.80
2018-02-06T16:24:43.301Z,22.93
2018-02-06T16:26:44.899Z,25.23
2018-02-06T16:28:49.394Z,23.40
2018-02-06T16:33:41.470Z,24.00
2018-02-06T16:35:43.213Z,21.60
2018-02-06T16:37:44.444Z,19.73
2018-02-06T16:39:45.705Z,18.63
2018-02-06T16:41:47.039Z,35.83
2018-02-06T16:46:25.145Z,21.93
2018-02-06T16:48:26.151Z,29.23
2018-02-06T16:50:41.644Z,23.30
2018-02-06T16:55:18.718Z,23.27
2018-02-06T16:57:19.676Z,20.83
2018-02-06T16:59:45.444Z,28.27
2018-02-06T17:02:10.809Z,27.37
2018-02-06T17:04:38.556Z,40.07
2018-02-06T17:06:39.656Z,23.30
2018-02-06T17:08:40.611Z,22.10
2018-02-06T17:10:41.890Z,25.10
2018-02-06T17:13:03.416Z,24.20
2018-02-06T17:15:07.748Z,30.63
2018-02-06T17:19:26.858Z,28.60
2018-02-06T17:21:38.771Z,23.13
2018-02-06T17:23:41.345Z,26.43
